sensor_id;sensor_type;location;lat;lon;timestamp;pressure;altitude;pressure_sealevel;temperature;humidity
30856;BME280;17570;0.000;0.000;2023-04-19T00:02:10;96586.19;;;17.79;48.62
30856;BME280;17570;0.000;0.000;2023-04-19T00:04:38;96590.14;;;17.75;48.70
30856;BME280;17570;0.000;0.000;2023-04-19T00:07:06;96583.42;;;17.72;48.92
30856;BME280;17570;0.000;0.000;2023-04-19T00:09:33;96586.05;;;17.72;49.16
30856;BME280;17570;0.000;0.000;2023-04-19T00:12:01;96585.39;;;17.70;49.25
30856;BME280;17570;0.000;0.000;2023-04-19T00:14:29;96583.58;;;17.71;49.09
30856;BME280;17570;0.000;0.000;2023-04-19T00:16:56;96580.64;;;17.74;48.92
30856;BME280;17570;0.000;0.000;2023-04-19T00:19:24;96576.36;;;17.73;48.69
30856;BME280;17570;0.000;0.000;2023-04-19T00:21:52;96578.33;;;17.71;48.73
30856;BME280;17570;0.000;0.000;2023-04-19T00:24:19;96575.55;;;17.72;49.21
30856;BME280;17570;0.000;0.000;2023-04-19T00:26:47;96576.20;;;17.74;48.85
30856;BME280;17570;0.000;0.000;2023-04-19T00:29:14;96570.96;;;17.74;48.80
30856;BME280;17570;0.000;0.000;2023-04-19T00:31:42;96572.08;;;17.72;48.86
30856;BME280;17570;0.000;0.000;2023-04-19T00:34:09;96572.08;;;17.72;48.87
30856;BME280;17570;0.000;0.000;2023-04-19T00:36:37;96573.89;;;17.71;48.67
30856;BME280;17570;0.000;0.000;2023-04-19T00:39:05;96569.45;;;17.72;48.84
30856;BME280;17570;0.000;0.000;2023-04-19T00:41:33;96566.20;;;17.70;49.06
30856;BME280;17570;0.000;0.000;2023-04-19T00:44:00;96570.83;;;17.68;48.98
30856;BME280;17570;0.000;0.000;2023-04-19T00:46:28;96571.80;;;17.67;48.97
30856;BME280;17570;0.000;0.000;2023-04-19T00:48:58;96564.73;;;17.67;48.82
30856;BME280;17570;0.000;0.000;2023-04-19T00:51:25;96569.17;;;17.67;48.82
30856;BME280;17570;0.000;0.000;2023-04-19T00:53:53;96568.36;;;17.66;48.90
30856;BME280;17570;0.000;0.000;2023-04-19T00:56:20;96571.17;;;17.65;48.77
30856;BME280;17570;0.000;0.000;2023-04-19T00:58:51;96575.61;;;17.64;48.85
30856;BME280;17570;0.000;0.000;2023-04-19T01:01:19;96574.80;;;17.64;49.09
30856;BME280;17570;0.000;0.000;2023-04-19T01:03:48;96576.94;;;17.60;49.23
30856;BME280;17570;0.000;0.000;2023-04-19T01:06:16;96571.51;;;17.62;49.05
30856;BME280;17570;0.000;0.000;2023-04-19T01:08:44;96564.30;;;17.64;48.84
30856;BME280;17570;0.000;0.000;2023-04-19T01:11:11;96556.42;;;17.64;48.70
30856;BME280;17570;0.000;0.000;2023-04-19T01:13:39;96567.73;;;17.64;48.74
30856;BME280;17570;0.000;0.000;2023-04-19T01:16:06;96562.48;;;17.64;48.58
30856;BME280;17570;0.000;0.000;2023-04-19T01:18:34;96564.30;;;17.64;48.52
30856;BME280;17570;0.000;0.000;2023-04-19T01:21:03;96557.23;;;17.64;48.62
30856;BME280;17570;0.000;0.000;2023-04-19T01:23:32;96555.77;;;17.62;48.71
30856;BME280;17570;0.000;0.000;2023-04-19T01:26:02;96549.89;;;17.59;48.84
30856;BME280;17570;0.000;0.000;2023-04-19T01:28:30;96563.20;;;17.58;49.22
30856;BME280;17570;0.000;0.000;2023-04-19T01:30:57;96554.48;;;17.57;49.16
30856;BME280;17570;0.000;0.000;2023-04-19T01:33:25;96556.58;;;17.62;49.05
30856;BME280;17570;0.000;0.000;2023-04-19T01:35:53;96548.89;;;17.60;49.11
30856;BME280;17570;0.000;0.000;2023-04-19T01:38:20;96552.17;;;17.63;48.75
30856;BME280;17570;0.000;0.000;2023-04-19T01:40:48;96542.83;;;17.60;48.90
30856;BME280;17570;0.000;0.000;2023-04-19T01:43:16;96553.95;;;17.62;48.77
30856;BME280;17570;0.000;0.000;2023-04-19T01:45:44;96549.89;;;17.59;48.88
30856;BME280;17570;0.000;0.000;2023-04-19T01:48:11;96549.08;;;17.59;48.88
30856;BME280;17570;0.000;0.000;2023-04-19T01:50:39;96543.83;;;17.59;48.65
30856;BME280;17570;0.000;0.000;2023-04-19T01:53:06;96540.39;;;17.58;49.00
30856;BME280;17570;0.000;0.000;2023-04-19T01:55:34;96540.02;;;17.62;48.75
30856;BME280;17570;0.000;0.000;2023-04-19T01:58:01;96541.67;;;17.63;48.87
30856;BME280;17570;0.000;0.000;2023-04-19T02:00:29;96539.39;;;17.59;48.82
30856;BME280;17570;0.000;0.000;2023-04-19T02:02:56;96531.33;;;17.61;48.63
30856;BME280;17570;0.000;0.000;2023-04-19T02:05:24;96533.67;;;17.56;48.55
30856;BME280;17570;0.000;0.000;2023-04-19T02:07:52;96531.23;;;17.54;48.40
30856;BME280;17570;0.000;0.000;2023-04-19T02:10:20;96533.05;;;17.54;48.20
30856;BME280;17570;0.000;0.000;2023-04-19T02:12:47;96532.23;;;17.53;48.36
30856;BME280;17570;0.000;0.000;2023-04-19T02:15:15;96534.85;;;17.53;48.32
30856;BME280;17570;0.000;0.000;2023-04-19T02:17:42;96535.20;;;17.50;48.46
30856;BME280;17570;0.000;0.000;2023-04-19T02:20:12;96531.91;;;17.48;48.37
30856;BME280;17570;0.000;0.000;2023-04-19T02:22:40;96528.47;;;17.48;48.18
30856;BME280;17570;0.000;0.000;2023-04-19T02:25:10;96531.76;;;17.50;48.44
30856;BME280;17570;0.000;0.000;2023-04-19T02:27:37;96531.91;;;17.48;48.38
30856;BME280;17570;0.000;0.000;2023-04-19T02:30:05;96533.91;;;17.46;48.45
30856;BME280;17570;0.000;0.000;2023-04-19T02:32:33;96534.72;;;17.47;48.13
30856;BME280;17570;0.000;0.000;2023-04-19T02:35:01;96533.91;;;17.46;48.07
30856;BME280;17570;0.000;0.000;2023-04-19T02:37:28;96533.91;;;17.46;47.87
30856;BME280;17570;0.000;0.000;2023-04-19T02:39:56;96531.63;;;17.43;48.03
30856;BME280;17570;0.000;0.000;2023-04-19T02:42:23;96538.87;;;17.41;48.05
30856;BME280;17570;0.000;0.000;2023-04-19T02:44:52;96528.38;;;17.41;47.98
30856;BME280;17570;0.000;0.000;2023-04-19T02:47:21;96530.34;;;17.39;47.86
30856;BME280;17570;0.000;0.000;2023-04-19T02:49:49;96529.71;;;17.37;47.67
30856;BME280;17570;0.000;0.000;2023-04-19T02:52:17;96524.13;;;17.40;47.94
30856;BME280;17570;0.000;0.000;2023-04-19T02:54:44;96525.75;;;17.41;47.67
30856;BME280;17570;0.000;0.000;2023-04-19T02:57:12;96530.00;;;17.42;47.91
30856;BME280;17570;0.000;0.000;2023-04-19T02:59:40;96527.38;;;17.42;47.86
30856;BME280;17570;0.000;0.000;2023-04-19T03:02:08;96521.66;;;17.39;47.83
30856;BME280;17570;0.000;0.000;2023-04-19T03:04:36;96523.47;;;17.38;47.88
30856;BME280;17570;0.000;0.000;2023-04-19T03:07:03;96521.84;;;17.37;48.14
30856;BME280;17570;0.000;0.000;2023-04-19T03:09:31;96528.72;;;17.38;48.04
30856;BME280;17570;0.000;0.000;2023-04-19T03:11:59;96520.84;;;17.38;47.87
30856;BME280;17570;0.000;0.000;2023-04-19T03:14:26;96524.47;;;17.37;47.77
30856;BME280;17570;0.000;0.000;2023-04-19T03:16:54;96525.46;;;17.36;47.68
30856;BME280;17570;0.000;0.000;2023-04-19T03:19:22;96520.84;;;17.38;47.62
30856;BME280;17570;0.000;0.000;2023-04-19T03:21:50;96526.46;;;17.35;47.82
30856;BME280;17570;0.000;0.000;2023-04-19T03:24:18;96525.17;;;17.31;47.62
30856;BME280;17570;0.000;0.000;2023-04-19T03:26:48;96525.98;;;17.31;47.74
30856;BME280;17570;0.000;0.000;2023-04-19T03:29:17;96530.05;;;17.34;47.87
30856;BME280;17570;0.000;0.000;2023-04-19T03:31:47;96530.23;;;17.32;48.25
30856;BME280;17570;0.000;0.000;2023-04-19T03:34:15;96530.42;;;17.31;48.44
30856;BME280;17570;0.000;0.000;2023-04-19T03:36:45;96521.03;;;17.37;48.51
30856;BME280;17570;0.000;0.000;2023-04-19T03:39:12;96517.59;;;17.36;48.62
30856;BME280;17570;0.000;0.000;2023-04-19T03:41:41;96523.66;;;17.37;48.53
30856;BME280;17570;0.000;0.000;2023-04-19T03:44:22;96519.41;;;17.36;48.50
30856;BME280;17570;0.000;0.000;2023-04-19T03:46:52;96529.61;;;17.30;48.58
30856;BME280;17570;0.000;0.000;2023-04-19T03:49:21;96521.37;;;17.33;48.64
30856;BME280;17570;0.000;0.000;2023-04-19T03:51:50;96522.37;;;17.32;48.76
30856;BME280;17570;0.000;0.000;2023-04-19T03:54:18;96525.17;;;17.31;48.67
30856;BME280;17570;0.000;0.000;2023-04-19T03:56:46;96516.78;;;17.36;48.66
30856;BME280;17570;0.000;0.000;2023-04-19T03:59:14;96520.55;;;17.33;48.83
30856;BME280;17570;0.000;0.000;2023-04-19T04:01:43;96528.23;;;17.34;48.54
30856;BME280;17570;0.000;0.000;2023-04-19T04:04:14;96532.67;;;17.34;48.42
30856;BME280;17570;0.000;0.000;2023-04-19T04:06:43;96528.80;;;17.30;48.21
30856;BME280;17570;0.000;0.000;2023-04-19T04:09:11;96527.32;;;17.27;48.43
30856;BME280;17570;0.000;0.000;2023-04-19T04:11:40;96532.38;;;17.29;48.36
30856;BME280;17570;0.000;0.000;2023-04-19T04:14:08;96537.62;;;17.29;48.01
30856;BME280;17570;0.000;0.000;2023-04-19T04:16:37;96544.53;;;17.30;48.07
30856;BME280;17570;0.000;0.000;2023-04-19T04:19:05;96538.34;;;17.23;48.09
30856;BME280;17570;0.000;0.000;2023-04-19T04:21:34;96538.52;;;17.21;48.19
30856;BME280;17570;0.000;0.000;2023-04-19T04:24:03;96533.09;;;17.23;48.08
30856;BME280;17570;0.000;0.000;2023-04-19T04:26:33;96539.97;;;17.24;48.03
30856;BME280;17570;0.000;0.000;2023-04-19T04:29:02;96536.34;;;17.25;48.16
30856;BME280;17570;0.000;0.000;2023-04-19T04:31:30;96540.44;;;17.27;48.16
30856;BME280;17570;0.000;0.000;2023-04-19T04:33:59;96548.13;;;17.29;48.25
30856;BME280;17570;0.000;0.000;2023-04-19T04:36:27;96543.25;;;17.26;48.34
30856;BME280;17570;0.000;0.000;2023-04-19T04:38:55;96543.69;;;17.29;48.46
30856;BME280;17570;0.000;0.000;2023-04-19T04:41:23;96544.69;;;17.28;48.62
30856;BME280;17570;0.000;0.000;2023-04-19T04:43:50;96549.78;;;17.30;48.36
30856;BME280;17570;0.000;0.000;2023-04-19T04:46:20;96548.94;;;17.29;48.38
30856;BME280;17570;0.000;0.000;2023-04-19T04:48:49;96549.13;;;17.28;48.81
30856;BME280;17570;0.000;0.000;2023-04-19T04:51:18;96546.50;;;17.28;48.91
30856;BME280;17570;0.000;0.000;2023-04-19T04:53:47;96553.22;;;17.30;48.91
30856;BME280;17570;0.000;0.000;2023-04-19T04:56:15;96550.59;;;17.30;48.88
30856;BME280;17570;0.000;0.000;2023-04-19T04:58:43;96555.03;;;17.30;48.70
30856;BME280;17570;0.000;0.000;2023-04-19T05:01:12;96555.66;;;17.32;48.67
30856;BME280;17570;0.000;0.000;2023-04-19T05:03:42;96554.95;;;17.38;49.01
30856;BME280;17570;0.000;0.000;2023-04-19T05:06:11;96556.66;;;17.54;49.81
30856;BME280;17570;0.000;0.000;2023-04-19T05:08:38;96547.45;;;17.58;49.60
30856;BME280;17570;0.000;0.000;2023-04-19T05:11:08;96548.27;;;17.58;49.50
30856;BME280;17570;0.000;0.000;2023-04-19T05:13:36;96548.41;;;17.57;49.60
30856;BME280;17570;0.000;0.000;2023-04-19T05:16:04;96553.84;;;17.55;49.29
30856;BME280;17570;0.000;0.000;2023-04-19T05:18:32;96558.63;;;17.52;49.42
30856;BME280;17570;0.000;0.000;2023-04-19T05:20:59;96555.00;;;17.53;49.17
30856;BME280;17570;0.000;0.000;2023-04-19T05:23:29;96558.63;;;17.52;49.39
30856;BME280;17570;0.000;0.000;2023-04-19T05:25:58;96553.38;;;17.52;49.51
30856;BME280;17570;0.000;0.000;2023-04-19T05:28:28;96558.63;;;17.52;49.47
30856;BME280;17570;0.000;0.000;2023-04-19T05:31:04;96565.06;;;17.49;49.17
30856;BME280;17570;0.000;0.000;2023-04-19T05:33:33;96561.96;;;17.46;49.06
30856;BME280;17570;0.000;0.000;2023-04-19T05:36:01;96566.55;;;17.44;49.45
30856;BME280;17570;0.000;0.000;2023-04-19T05:38:28;96562.59;;;17.48;49.29
30856;BME280;17570;0.000;0.000;2023-04-19T05:40:56;96562.44;;;17.49;49.31
30856;BME280;17570;0.000;0.000;2023-04-19T05:43:24;96570.30;;;17.49;49.53
30856;BME280;17570;0.000;0.000;2023-04-19T05:45:51;96569.64;;;17.47;49.19
30856;BME280;17570;0.000;0.000;2023-04-19T05:48:19;96566.21;;;17.47;49.25
30856;BME280;17570;0.000;0.000;2023-04-19T05:50:58;96572.93;;;17.49;49.34
30856;BME280;17570;0.000;0.000;2023-04-19T05:53:27;96566.55;;;17.44;49.12
30856;BME280;17570;0.000;0.000;2023-04-19T05:55:55;96562.14;;;17.44;49.18
30856;BME280;17570;0.000;0.000;2023-04-19T05:58:23;96573.09;;;17.48;49.23
30856;BME280;17570;0.000;0.000;2023-04-19T06:00:51;96567.02;;;17.47;49.15
30856;BME280;17570;0.000;0.000;2023-04-19T06:03:19;96570.46;;;17.48;49.34
30856;BME280;17570;0.000;0.000;2023-04-19T06:06:04;96573.89;;;17.48;49.23
30856;BME280;17570;0.000;0.000;2023-04-19T06:08:31;96569.83;;;17.46;49.24
30856;BME280;17570;0.000;0.000;2023-04-19T06:10:58;96570.36;;;17.41;49.41
30856;BME280;17570;0.000;0.000;2023-04-19T06:13:26;96574.08;;;17.47;49.33
30856;BME280;17570;0.000;0.000;2023-04-19T06:15:54;96574.89;;;17.47;49.46
30856;BME280;17570;0.000;0.000;2023-04-19T06:18:21;96577.18;;;17.50;49.29
30856;BME280;17570;0.000;0.000;2023-04-19T06:20:49;96568.97;;;17.53;49.14
30856;BME280;17570;0.000;0.000;2023-04-19T06:23:16;96570.75;;;17.53;49.06
30856;BME280;17570;0.000;0.000;2023-04-19T06:25:44;96571.59;;;17.53;49.19
30856;BME280;17570;0.000;0.000;2023-04-19T06:28:13;96573.22;;;17.54;49.46
30856;BME280;17570;0.000;0.000;2023-04-19T06:30:41;96578.63;;;17.53;49.11
30856;BME280;17570;0.000;0.000;2023-04-19T06:33:08;96574.22;;;17.53;49.16
30856;BME280;17570;0.000;0.000;2023-04-19T06:35:36;96574.22;;;17.53;49.39
30856;BME280;17570;0.000;0.000;2023-04-19T06:38:04;96581.91;;;17.55;49.03
30856;BME280;17570;0.000;0.000;2023-04-19T06:40:31;96588.97;;;17.54;49.20
30856;BME280;17570;0.000;0.000;2023-04-19T06:42:59;96583.72;;;17.54;49.18
30856;BME280;17570;0.000;0.000;2023-04-19T06:45:27;96586.16;;;17.56;49.02
30856;BME280;17570;0.000;0.000;2023-04-19T06:47:55;96587.16;;;17.55;49.21
30856;BME280;17570;0.000;0.000;2023-04-19T06:50:22;96586.16;;;17.56;48.75
30856;BME280;17570;0.000;0.000;2023-04-19T06:52:50;96590.59;;;17.55;48.82
30856;BME280;17570;0.000;0.000;2023-04-19T06:55:17;96588.59;;;17.57;49.27
30856;BME280;17570;0.000;0.000;2023-04-19T06:57:45;96599.94;;;17.81;50.34
30856;BME280;17570;0.000;0.000;2023-04-19T07:00:13;96591.53;;;17.85;50.09
30856;BME280;17570;0.000;0.000;2023-04-19T07:02:40;96596.78;;;17.85;50.29
30856;BME280;17570;0.000;0.000;2023-04-19T07:05:08;96600.91;;;18.03;51.74
30856;BME280;17570;0.000;0.000;2023-04-19T07:07:35;96603.69;;;18.24;52.18
30856;BME280;17570;0.000;0.000;2023-04-19T07:10:03;96597.52;;;18.32;51.30
30856;BME280;17570;0.000;0.000;2023-04-19T07:12:31;96603.96;;;18.29;50.84
30856;BME280;17570;0.000;0.000;2023-04-19T07:14:58;96599.44;;;18.23;50.04
30856;BME280;17570;0.000;0.000;2023-04-19T07:17:26;96594.53;;;18.20;49.87
30856;BME280;17570;0.000;0.000;2023-04-19T07:19:53;96600.13;;;18.17;49.87
30856;BME280;17570;0.000;0.000;2023-04-19T07:22:21;96608.20;;;18.16;49.57
30856;BME280;17570;0.000;0.000;2023-04-19T07:24:49;96607.92;;;18.10;49.70
30856;BME280;17570;0.000;0.000;2023-04-19T07:27:17;96605.63;;;18.07;49.68
30856;BME280;17570;0.000;0.000;2023-04-19T07:29:45;96603.20;;;18.06;49.79
30856;BME280;17570;0.000;0.000;2023-04-19T07:32:12;96602.38;;;18.05;49.36
30856;BME280;17570;0.000;0.000;2023-04-19T07:34:40;96600.25;;;18.24;50.35
30856;BME280;17570;0.000;0.000;2023-04-19T07:37:08;96603.77;;;18.31;49.93
30856;BME280;17570;0.000;0.000;2023-04-19T07:39:36;96606.59;;;18.29;49.71
30856;BME280;17570;0.000;0.000;2023-04-19T07:42:04;96605.78;;;18.29;49.37
30856;BME280;17570;0.000;0.000;2023-04-19T07:44:31;96606.41;;;18.31;49.03
30856;BME280;17570;0.000;0.000;2023-04-19T07:46:59;96603.16;;;18.29;49.34
30856;BME280;17570;0.000;0.000;2023-04-19T07:49:26;96603.96;;;18.29;49.13
30856;BME280;17570;0.000;0.000;2023-04-19T07:51:55;96609.41;;;18.28;49.02
30856;BME280;17570;0.000;0.000;2023-04-19T07:54:23;96605.12;;;18.27;49.22
30856;BME280;17570;0.000;0.000;2023-04-19T07:56:54;96611.66;;;18.31;48.90
30856;BME280;17570;0.000;0.000;2023-04-19T07:59:23;96606.41;;;18.31;48.57
30856;BME280;17570;0.000;0.000;2023-04-19T08:01:51;96605.94;;;18.27;48.44
30856;BME280;17570;0.000;0.000;2023-04-19T08:04:18;96601.15;;;18.31;48.43
30856;BME280;17570;0.000;0.000;2023-04-19T08:06:47;96607.68;;;18.35;48.15
30856;BME280;17570;0.000;0.000;2023-04-19T08:09:15;96606.14;;;18.41;47.85
30856;BME280;17570;0.000;0.000;2023-04-19T08:11:42;96602.98;;;18.45;47.53
30856;BME280;17570;0.000;0.000;2023-04-19T08:14:10;96603.63;;;18.47;47.70
30856;BME280;17570;0.000;0.000;2023-04-19T08:16:37;96599.45;;;18.53;47.40
30856;BME280;17570;0.000;0.000;2023-04-19T08:19:05;96601.08;;;18.54;47.18
30856;BME280;17570;0.000;0.000;2023-04-19T08:21:32;96600.08;;;18.55;47.37
30856;BME280;17570;0.000;0.000;2023-04-19T08:24:00;96599.92;;;18.56;47.15
30856;BME280;17570;0.000;0.000;2023-04-19T08:26:28;96603.44;;;18.64;47.35
30856;BME280;17570;0.000;0.000;2023-04-19T08:28:56;96596.55;;;18.63;47.69
30856;BME280;17570;0.000;0.000;2023-04-19T08:31:23;96604.09;;;18.66;47.42
30856;BME280;17570;0.000;0.000;2023-04-19T08:33:51;96604.09;;;18.66;47.47
30856;BME280;17570;0.000;0.000;2023-04-19T08:36:18;96592.77;;;18.95;47.77
30856;BME280;17570;0.000;0.000;2023-04-19T08:38:46;96590.06;;;19.24;47.27
30856;BME280;17570;0.000;0.000;2023-04-19T08:41:14;96590.77;;;19.33;47.05
30856;BME280;17570;0.000;0.000;2023-04-19T08:43:42;96590.77;;;19.33;46.57
30856;BME280;17570;0.000;0.000;2023-04-19T08:46:10;96588.08;;;19.26;46.68
30856;BME280;17570;0.000;0.000;2023-04-19T08:48:38;96580.55;;;19.23;46.25
30856;BME280;17570;0.000;0.000;2023-04-19T08:51:06;96586.87;;;19.29;46.07
30856;BME280;17570;0.000;0.000;2023-04-19T08:53:34;96578.63;;;19.32;45.57
30856;BME280;17570;0.000;0.000;2023-04-19T08:56:03;96583.47;;;19.50;45.48
30856;BME280;17570;0.000;0.000;2023-04-19T08:58:31;96590.45;;;19.79;46.29
30856;BME280;17570;0.000;0.000;2023-04-19T09:00:58;96577.41;;;19.92;44.26
30856;BME280;17570;0.000;0.000;2023-04-19T09:03:26;96578.09;;;20.01;43.66
30856;BME280;17570;0.000;0.000;2023-04-19T09:05:53;96572.05;;;20.07;43.40
30856;BME280;17570;0.000;0.000;2023-04-19T09:08:21;96576.10;;;20.09;42.68
30856;BME280;17570;0.000;0.000;2023-04-19T09:10:56;96577.92;;;20.09;43.50
30856;BME280;17570;0.000;0.000;2023-04-19T09:13:24;96573.87;;;20.06;43.57
30856;BME280;17570;0.000;0.000;2023-04-19T09:15:52;96580.32;;;20.04;43.28
30856;BME280;17570;0.000;0.000;2023-04-19T09:18:21;96578.90;;;20.01;42.90
30856;BME280;17570;0.000;0.000;2023-04-19T09:20:50;96575.25;;;20.02;43.55
30856;BME280;17570;0.000;0.000;2023-04-19T09:23:20;96575.62;;;19.99;43.62
30856;BME280;17570;0.000;0.000;2023-04-19T09:25:57;96580.04;;;19.92;43.41
30856;BME280;17570;0.000;0.000;2023-04-19T09:28:30;96582.03;;;19.90;43.76
30856;BME280;17570;0.000;0.000;2023-04-19T09:30:57;96585.80;;;19.81;43.81
30856;BME280;17570;0.000;0.000;2023-04-19T09:33:35;96579.96;;;19.85;44.18
30856;BME280;17570;0.000;0.000;2023-04-19T09:35:54;96579.84;;;19.94;43.33
30856;BME280;17570;0.000;0.000;2023-04-19T09:38:21;96573.14;;;19.91;43.29
30856;BME280;17570;0.000;0.000;2023-04-19T09:40:49;96575.78;;;19.91;43.79
30856;BME280;17570;0.000;0.000;2023-04-19T09:43:23;96570.11;;;19.94;44.16
30856;BME280;17570;0.000;0.000;2023-04-19T09:45:53;96570.35;;;19.99;43.63
30856;BME280;17570;0.000;0.000;2023-04-19T09:48:21;96570.80;;;20.03;43.87
30856;BME280;17570;0.000;0.000;2023-04-19T09:50:53;96564.17;;;20.13;43.10
30856;BME280;17570;0.000;0.000;2023-04-19T09:53:21;96569.17;;;20.30;42.45
30856;BME280;17570;0.000;0.000;2023-04-19T09:55:49;96564.59;;;20.45;42.45
30856;BME280;17570;0.000;0.000;2023-04-19T09:58:17;96570.81;;;20.66;43.31
30856;BME280;17570;0.000;0.000;2023-04-19T10:00:45;96568.88;;;20.81;42.44
30856;BME280;17570;0.000;0.000;2023-04-19T10:03:13;96566.31;;;20.94;41.65
30856;BME280;17570;0.000;0.000;2023-04-19T10:05:42;96557.81;;;21.05;41.21
30856;BME280;17570;0.000;0.000;2023-04-19T10:08:10;96557.23;;;21.17;41.70
30856;BME280;17570;0.000;0.000;2023-04-19T10:10:43;96562.34;;;21.25;41.49
30856;BME280;17570;0.000;0.000;2023-04-19T10:13:12;96560.16;;;21.35;42.27
30856;BME280;17570;0.000;0.000;2023-04-19T10:15:41;96555.72;;;21.42;42.38
30856;BME280;17570;0.000;0.000;2023-04-19T10:18:09;96552.90;;;21.50;42.52
30856;BME280;17570;0.000;0.000;2023-04-19T10:20:48;96556.55;;;21.62;41.02
30856;BME280;17570;0.000;0.000;2023-04-19T10:23:15;96559.61;;;21.73;42.71
30856;BME280;17570;0.000;0.000;2023-04-19T10:25:46;96558.19;;;21.77;41.59
30856;BME280;17570;0.000;0.000;2023-04-19T10:28:16;96548.26;;;21.92;41.13
30856;BME280;17570;0.000;0.000;2023-04-19T10:31:00;96544.98;;;22.03;40.68
30856;BME280;17570;0.000;0.000;2023-04-19T10:33:34;96541.75;;;22.14;39.48
30856;BME280;17570;0.000;0.000;2023-04-19T10:35:57;96541.96;;;22.13;39.32
30856;BME280;17570;0.000;0.000;2023-04-19T10:38:35;96539.11;;;22.21;38.96
30856;BME280;17570;0.000;0.000;2023-04-19T10:41:03;96532.40;;;22.25;38.07
30856;BME280;17570;0.000;0.000;2023-04-19T10:43:32;96531.39;;;22.20;38.57
30856;BME280;17570;0.000;0.000;2023-04-19T10:46:07;96532.39;;;22.19;38.33
30856;BME280;17570;0.000;0.000;2023-04-19T10:48:35;96541.97;;;22.20;37.73
30856;BME280;17570;0.000;0.000;2023-04-19T10:51:05;96536.27;;;22.16;38.53
30856;BME280;17570;0.000;0.000;2023-04-19T10:53:45;96526.11;;;22.20;38.02
30856;BME280;17570;0.000;0.000;2023-04-19T10:56:13;96524.03;;;22.28;38.73
30856;BME280;17570;0.000;0.000;2023-04-19T11:01:34;96526.86;;;22.33;38.59
30856;BME280;17570;0.000;0.000;2023-04-19T11:04:09;96528.89;;;22.38;38.97
30856;BME280;17570;0.000;0.000;2023-04-19T11:09:29;96524.08;;;22.80;40.42
30856;BME280;17570;0.000;0.000;2023-04-19T11:12:01;96523.66;;;22.89;39.65
30856;BME280;17570;0.000;0.000;2023-04-19T11:14:33;96525.05;;;22.99;38.63
30856;BME280;17570;0.000;0.000;2023-04-19T11:17:28;96513.59;;;23.11;37.65
30856;BME280;17570;0.000;0.000;2023-04-19T11:19:37;96511.11;;;23.16;36.96
30856;BME280;17570;0.000;0.000;2023-04-19T11:22:08;96512.09;;;23.22;36.40
30856;BME280;17570;0.000;0.000;2023-04-19T11:24:43;96510.48;;;23.21;36.40
30856;BME280;17570;0.000;0.000;2023-04-19T11:27:07;96508.47;;;23.16;35.87
30856;BME280;17570;0.000;0.000;2023-04-19T11:29:35;96511.34;;;23.15;36.16
30856;BME280;17570;0.000;0.000;2023-04-19T11:32:02;96511.92;;;23.17;35.76
30856;BME280;17570;0.000;0.000;2023-04-19T11:34:37;96515.14;;;23.26;36.01
30856;BME280;17570;0.000;0.000;2023-04-19T11:37:05;96510.23;;;23.29;37.05
30856;BME280;17570;0.000;0.000;2023-04-19T11:39:32;96513.84;;;23.41;37.53
30856;BME280;17570;0.000;0.000;2023-04-19T11:42:00;96515.06;;;23.39;38.37
30856;BME280;17570;0.000;0.000;2023-04-19T11:44:28;96514.72;;;23.29;37.85
30856;BME280;17570;0.000;0.000;2023-04-19T11:46:57;96513.58;;;23.18;37.85
30856;BME280;17570;0.000;0.000;2023-04-19T11:49:32;96513.81;;;23.10;37.41
30856;BME280;17570;0.000;0.000;2023-04-19T11:51:56;96512.02;;;23.04;37.17
30856;BME280;17570;0.000;0.000;2023-04-19T11:54:24;96507.99;;;22.95;37.50
30856;BME280;17570;0.000;0.000;2023-04-19T11:57:02;96503.92;;;22.92;37.55
30856;BME280;17570;0.000;0.000;2023-04-19T11:59:35;96505.55;;;22.86;37.03
30856;BME280;17570;0.000;0.000;2023-04-19T12:02:08;96483.45;;;22.68;37.71
30856;BME280;17570;0.000;0.000;2023-04-19T12:04:36;96505.56;;;22.80;37.49
30856;BME280;17570;0.000;0.000;2023-04-19T12:07:04;96503.17;;;22.72;37.22
30856;BME280;17570;0.000;0.000;2023-04-19T12:09:33;96497.25;;;22.76;37.19
30856;BME280;17570;0.000;0.000;2023-04-19T12:12:01;96490.13;;;22.77;36.92
30856;BME280;17570;0.000;0.000;2023-04-19T12:14:29;96491.74;;;22.78;37.20
30856;BME280;17570;0.000;0.000;2023-04-19T12:19:36;96488.50;;;22.76;36.30
30856;BME280;17570;0.000;0.000;2023-04-19T12:22:12;96488.30;;;22.71;36.46
30856;BME280;17570;0.000;0.000;2023-04-19T12:24:36;96485.23;;;22.74;36.38
30856;BME280;17570;0.000;0.000;2023-04-19T12:27:05;96470.98;;;22.75;34.94
30856;BME280;17570;0.000;0.000;2023-04-19T12:29:32;96469.94;;;22.82;35.76
30856;BME280;17570;0.000;0.000;2023-04-19T12:32:00;96473.58;;;22.95;35.69
30856;BME280;17570;0.000;0.000;2023-04-19T12:34:28;96466.80;;;23.05;35.20
30856;BME280;17570;0.000;0.000;2023-04-19T12:36:56;96461.84;;;23.15;35.32
30856;BME280;17570;0.000;0.000;2023-04-19T12:39:23;96457.49;;;23.28;35.45
30856;BME280;17570;0.000;0.000;2023-04-19T12:41:51;96456.56;;;23.40;35.81
30856;BME280;17570;0.000;0.000;2023-04-19T12:44:18;96453.70;;;23.74;36.75
30856;BME280;17570;0.000;0.000;2023-04-19T12:46:46;96452.41;;;24.19;37.11
30856;BME280;17570;0.000;0.000;2023-04-19T12:49:16;96457.89;;;24.61;36.54
30856;BME280;17570;0.000;0.000;2023-04-19T12:51:42;96455.27;;;24.91;36.58
30856;BME280;17570;0.000;0.000;2023-04-19T12:54:12;96451.80;;;25.09;36.29
30856;BME280;17570;0.000;0.000;2023-04-19T12:56:39;96449.03;;;25.16;36.02
30856;BME280;17570;0.000;0.000;2023-04-19T12:59:07;96443.95;;;25.14;35.03
30856;BME280;17570;0.000;0.000;2023-04-19T13:01:34;96436.19;;;25.13;33.80
30856;BME280;17570;0.000;0.000;2023-04-19T13:04:02;96439.52;;;25.08;33.23
30856;BME280;17570;0.000;0.000;2023-04-19T13:06:29;96431.87;;;25.00;31.58
30856;BME280;17570;0.000;0.000;2023-04-19T13:08:57;96440.69;;;25.12;31.27
30856;BME280;17570;0.000;0.000;2023-04-19T13:11:24;96434.21;;;25.08;32.05
30856;BME280;17570;0.000;0.000;2023-04-19T13:13:52;96426.19;;;24.97;31.41
30856;BME280;17570;0.000;0.000;2023-04-19T13:16:20;96427.98;;;24.84;31.86
30856;BME280;17570;0.000;0.000;2023-04-19T13:18:47;96429.80;;;24.72;31.71
30856;BME280;17570;0.000;0.000;2023-04-19T13:21:16;96431.34;;;24.61;32.12
30856;BME280;17570;0.000;0.000;2023-04-19T13:23:44;96427.23;;;24.47;32.03
30856;BME280;17570;0.000;0.000;2023-04-19T13:26:12;96424.91;;;24.39;32.47